createdAt,value
2023-04-14T00:00:10.028Z,100.00
2023-04-14T00:02:38.482Z,100.00
2023-04-14T00:05:08.315Z,100.00
2023-04-14T00:07:36.677Z,100.00
2023-04-14T00:10:05.345Z,100.00
2023-04-14T00:12:34.992Z,100.00
2023-04-14T00:15:03.346Z,100.00
2023-04-14T00:17:32.392Z,100.00
2023-04-14T00:20:00.782Z,100.00
2023-04-14T00:22:29.072Z,100.00
2023-04-14T00:24:57.471Z,100.00
2023-04-14T00:27:25.875Z,100.00
2023-04-14T00:29:55.548Z,100.00
2023-04-14T00:32:23.843Z,100.00
2023-04-14T00:34:52.129Z,100.00
2023-04-14T00:37:20.493Z,100.00
2023-04-14T00:39:48.723Z,100.00
2023-04-14T00:42:17.014Z,100.00
2023-04-14T00:44:47.369Z,99.44
2023-04-14T00:47:17.313Z,96.50
2023-04-14T00:49:45.981Z,98.68
2023-04-14T00:52:14.218Z,100.00
2023-04-14T00:54:42.500Z,100.00
2023-04-14T00:57:10.988Z,100.00
2023-04-14T00:59:39.342Z,100.00
2023-04-14T01:02:07.781Z,100.00
2023-04-14T01:04:51.900Z,100.00
2023-04-14T01:07:21.844Z,100.00
2023-04-14T01:09:50.455Z,100.00
2023-04-14T01:12:26.206Z,100.00
2023-04-14T01:15:04.536Z,100.00
2023-04-14T01:17:36.850Z,100.00
2023-04-14T01:20:14.585Z,100.00
2023-04-14T01:22:48.515Z,100.00
2023-04-14T01:25:42.949Z,100.00
2023-04-14T01:28:17.278Z,100.00
2023-04-14T01:31:00.867Z,100.00
2023-04-14T01:33:31.698Z,100.00
2023-04-14T01:36:02.207Z,100.00
2023-04-14T01:38:36.018Z,100.00
2023-04-14T01:41:07.650Z,100.00
2023-04-14T01:43:39.061Z,100.00
2023-04-14T01:46:08.723Z,100.00
2023-04-14T01:48:39.560Z,100.00
2023-04-14T01:51:08.894Z,100.00
2023-04-14T01:53:39.081Z,100.00
2023-04-14T01:56:09.208Z,100.00
2023-04-14T01:58:38.520Z,100.00
2023-04-14T02:01:07.922Z,100.00
2023-04-14T02:03:38.549Z,100.00
2023-04-14T02:06:07.229Z,100.00
2023-04-14T02:08:37.457Z,100.00
2023-04-14T02:11:06.454Z,100.00
2023-04-14T02:13:36.490Z,100.00
2023-04-14T02:16:07.409Z,100.00
2023-04-14T02:18:38.217Z,100.00
2023-04-14T02:21:07.263Z,100.00
2023-04-14T02:23:35.602Z,100.00
2023-04-14T02:26:09.714Z,100.00
2023-04-14T02:28:43.077Z,100.00
2023-04-14T02:31:14.247Z,100.00
2023-04-14T02:33:45.024Z,100.00
2023-04-14T02:36:17.349Z,100.00
2023-04-14T02:38:48.046Z,100.00
2023-04-14T02:41:21.546Z,100.00
2023-04-14T02:43:52.873Z,100.00
2023-04-14T02:46:23.227Z,100.00
2023-04-14T02:48:53.598Z,100.00
2023-04-14T02:51:22.868Z,100.00
2023-04-14T02:53:51.594Z,100.00
2023-04-14T02:56:20.139Z,100.00
2023-04-14T02:58:49.162Z,100.00
2023-04-14T03:01:17.661Z,100.00
2023-04-14T03:03:46.076Z,100.00
2023-04-14T03:06:16.630Z,100.00
2023-04-14T03:08:45.475Z,97.75
2023-04-14T03:11:15.479Z,100.00
2023-04-14T03:13:44.755Z,100.00
2023-04-14T03:16:13.416Z,100.00
2023-04-14T03:18:42.091Z,100.00
2023-04-14T03:21:10.542Z,100.00
2023-04-14T03:23:41.196Z,100.00
2023-04-14T03:26:09.317Z,100.00
2023-04-14T03:28:38.690Z,100.00
2023-04-14T03:31:08.953Z,100.00
2023-04-14T03:33:38.737Z,100.00
2023-04-14T03:36:08.554Z,100.00
2023-04-14T03:38:37.119Z,100.00
2023-04-14T03:41:09.663Z,100.00
2023-04-14T03:43:38.777Z,100.00
2023-04-14T03:46:07.587Z,100.00
2023-04-14T03:48:42.391Z,100.00
2023-04-14T03:51:13.191Z,100.00
2023-04-14T03:53:42.148Z,100.00
2023-04-14T03:56:13.339Z,100.00
2023-04-14T03:58:42.284Z,100.00
2023-04-14T04:01:10.756Z,100.00
2023-04-14T04:03:41.024Z,100.00
2023-04-14T04:06:09.697Z,100.00
2023-04-14T04:08:38.481Z,100.00
2023-04-14T04:11:07.200Z,100.00
2023-04-14T04:13:38.050Z,100.00
2023-04-14T04:16:08.470Z,97.87
2023-04-14T04:18:39.184Z,98.90
2023-04-14T04:21:07.319Z,100.00
2023-04-14T04:23:36.070Z,100.00
2023-04-14T04:26:04.414Z,100.00
2023-04-14T04:28:32.901Z,99.57
2023-04-14T04:31:06.293Z,99.14
2023-04-14T04:33:35.610Z,100.00
2023-04-14T04:36:05.378Z,98.07
2023-04-14T04:38:33.689Z,91.34
2023-04-14T04:41:02.007Z,97.51
2023-04-14T04:43:30.304Z,96.44
2023-04-14T04:46:15.493Z,91.49
2023-04-14T04:48:43.763Z,93.46
2023-04-14T04:51:11.977Z,96.73
2023-04-14T04:53:40.304Z,93.83
2023-04-14T04:56:09.276Z,97.36
2023-04-14T04:58:37.598Z,100.00
2023-04-14T05:01:10.423Z,100.00
2023-04-14T05:03:39.062Z,94.01
2023-04-14T05:06:07.546Z,88.83
2023-04-14T05:08:36.014Z,92.37
2023-04-14T05:11:04.365Z,97.58
2023-04-14T05:13:32.981Z,98.69
2023-04-14T05:16:05.445Z,100.00
2023-04-14T05:18:36.346Z,95.92
2023-04-14T05:21:04.936Z,100.00
2023-04-14T05:23:34.266Z,97.04
2023-04-14T05:26:22.394Z,98.16
2023-04-14T05:28:50.890Z,99.99
2023-04-14T05:31:20.196Z,95.65
2023-04-14T05:33:49.860Z,100.00
2023-04-14T05:36:18.142Z,98.26
2023-04-14T05:38:46.549Z,100.00
2023-04-14T05:41:14.772Z,100.00
2023-04-14T05:43:43.035Z,100.00
2023-04-14T05:46:11.341Z,100.00
2023-04-14T05:48:39.747Z,100.00
2023-04-14T05:51:09.348Z,100.00
2023-04-14T05:53:37.668Z,99.28
2023-04-14T05:56:06.496Z,100.00
2023-04-14T05:58:34.724Z,100.00
2023-04-14T06:01:04.028Z,100.00
2023-04-14T06:03:32.879Z,100.00
2023-04-14T06:06:01.270Z,100.00
2023-04-14T06:08:31.329Z,100.00
2023-04-14T06:10:59.647Z,100.00
2023-04-14T06:13:31.159Z,100.00
2023-04-14T06:16:00.870Z,100.00
2023-04-14T06:18:29.196Z,100.00
2023-04-14T06:20:57.450Z,100.00
2023-04-14T06:23:26.805Z,100.00
2023-04-14T06:25:57.866Z,100.00
2023-04-14T06:28:26.564Z,100.00
2023-04-14T06:30:54.990Z,100.00
2023-04-14T06:33:23.886Z,100.00
2023-04-14T06:35:52.156Z,100.00
2023-04-14T06:38:20.725Z,100.00
2023-04-14T06:40:50.293Z,100.00
2023-04-14T06:43:21.520Z,100.00
2023-04-14T06:45:50.994Z,100.00
2023-04-14T06:48:19.462Z,100.00
2023-04-14T06:50:54.669Z,100.00
2023-04-14T06:53:23.069Z,100.00
2023-04-14T06:55:59.003Z,100.00
2023-04-14T06:58:29.750Z,100.00
2023-04-14T07:00:58.412Z,100.00
2023-04-14T07:03:27.503Z,99.14
2023-04-14T07:05:55.853Z,98.07
2023-04-14T07:08:24.116Z,99.47
2023-04-14T07:11:00.501Z,95.08
2023-04-14T07:13:30.519Z,93.41
2023-04-14T07:15:59.343Z,93.51
2023-04-14T07:18:27.773Z,87.70
2023-04-14T07:20:56.344Z,88.39
2023-04-14T07:23:24.682Z,85.49
2023-04-14T07:25:53.503Z,88.94
2023-04-14T07:28:22.070Z,89.81
2023-04-14T07:30:52.699Z,87.76
2023-04-14T07:33:22.364Z,86.91
2023-04-14T07:36:01.318Z,85.13
2023-04-14T07:38:31.108Z,85.98
2023-04-14T07:40:59.387Z,84.65
2023-04-14T07:43:27.920Z,87.66
2023-04-14T07:45:57.675Z,87.99
2023-04-14T07:48:26.136Z,87.70
2023-04-14T07:50:54.974Z,89.39
2023-04-14T07:53:23.342Z,91.86
2023-04-14T07:55:51.569Z,95.62
2023-04-14T07:58:19.923Z,94.11
2023-04-14T08:00:48.182Z,94.53
2023-04-14T08:03:18.266Z,98.25
2023-04-14T08:05:46.740Z,97.18
2023-04-14T08:08:15.468Z,96.11
2023-04-14T08:10:43.767Z,97.72
2023-04-14T08:13:12.035Z,93.47
2023-04-14T08:15:40.374Z,97.53
2023-04-14T08:18:08.706Z,99.79
2023-04-14T08:20:38.580Z,97.06
2023-04-14T08:23:06.815Z,99.12
2023-04-14T08:25:35.150Z,98.42
2023-04-14T08:28:03.540Z,100.00
2023-04-14T08:30:32.264Z,99.17
2023-04-14T08:33:00.570Z,100.00
2023-04-14T08:35:35.509Z,100.00
2023-04-14T08:38:10.109Z,100.00
2023-04-14T08:40:40.437Z,94.33
2023-04-14T08:43:08.933Z,97.03
2023-04-14T08:45:37.564Z,97.91
2023-04-14T08:48:06.789Z,100.00
2023-04-14T08:50:39.004Z,99.62
2023-04-14T08:53:11.052Z,100.00
2023-04-14T08:55:41.639Z,100.00
2023-04-14T08:58:10.817Z,100.00
2023-04-14T09:00:40.004Z,100.00
2023-04-14T09:03:09.441Z,100.00
2023-04-14T09:05:38.323Z,100.00
2023-04-14T09:08:06.819Z,100.00
2023-04-14T09:10:37.047Z,100.00
2023-04-14T09:13:06.663Z,100.00
2023-04-14T09:15:34.963Z,100.00
2023-04-14T09:18:03.414Z,100.00
2023-04-14T09:20:37.400Z,100.00
2023-04-14T09:23:08.840Z,100.00
2023-04-14T09:25:39.392Z,100.00
2023-04-14T09:28:07.740Z,100.00
2023-04-14T09:30:36.458Z,100.00
2023-04-14T09:33:08.116Z,100.00
2023-04-14T09:35:45.161Z,100.00
2023-04-14T09:38:13.428Z,100.00
2023-04-14T09:40:45.038Z,100.00
2023-04-14T09:43:26.979Z,100.00
2023-04-14T09:45:56.309Z,98.63
2023-04-14T09:48:25.729Z,94.53
2023-04-14T09:50:58.693Z,85.94
2023-04-14T09:53:28.432Z,87.28
2023-04-14T09:55:59.721Z,92.91
2023-04-14T09:58:31.237Z,89.54
2023-04-14T10:01:00.517Z,93.62
2023-04-14T10:03:38.904Z,91.23
2023-04-14T10:06:10.955Z,88.00
2023-04-14T10:08:41.051Z,90.81
2023-04-14T10:11:17.904Z,95.04
2023-04-14T10:13:46.922Z,93.26
2023-04-14T10:16:15.657Z,92.98
2023-04-14T10:18:44.223Z,96.47
2023-04-14T10:21:12.589Z,96.03
2023-04-14T10:23:41.860Z,92.45
2023-04-14T10:26:11.961Z,97.22
2023-04-14T10:28:44.657Z,94.09
2023-04-14T10:31:16.232Z,89.42
2023-04-14T10:33:44.634Z,86.75
2023-04-14T10:36:13.325Z,92.92
2023-04-14T10:38:43.500Z,87.53
2023-04-14T10:41:12.697Z,85.35
2023-04-14T10:43:42.358Z,83.22
2023-04-14T10:46:11.356Z,82.58
2023-04-14T10:48:41.328Z,83.97
2023-04-14T10:51:11.743Z,83.25
2023-04-14T10:53:45.059Z,76.07
2023-04-14T10:56:13.552Z,74.16
2023-04-14T10:58:45.553Z,77.46
2023-04-14T11:01:27.113Z,77.29
2023-04-14T11:03:56.352Z,76.05
2023-04-14T11:06:50.125Z,76.06
2023-04-14T11:09:25.476Z,72.94
2023-04-14T11:11:55.608Z,70.84
2023-04-14T11:14:28.760Z,67.83
2023-04-14T11:17:04.126Z,65.33
2023-04-14T11:19:34.177Z,59.98
2023-04-14T11:22:02.451Z,60.24
2023-04-14T11:24:30.744Z,65.05
2023-04-14T11:27:00.138Z,63.03
2023-04-14T11:29:29.734Z,67.41
2023-04-14T11:32:05.789Z,66.81
2023-04-14T11:34:35.051Z,69.34
2023-04-14T11:37:04.274Z,59.85
2023-04-14T11:39:33.061Z,54.56
2023-04-14T11:42:01.320Z,57.41
2023-04-14T11:44:30.955Z,56.40
2023-04-14T11:46:59.261Z,57.80
2023-04-14T11:49:36.653Z,55.86
2023-04-14T11:52:08.841Z,53.73
2023-04-14T11:54:37.970Z,53.82
2023-04-14T11:57:12.737Z,53.14
2023-04-14T11:59:44.050Z,55.16
2023-04-14T12:02:17.546Z,59.06
2023-04-14T12:04:46.902Z,56.72
2023-04-14T12:07:17.071Z,62.08
2023-04-14T12:09:46.899Z,59.75
2023-04-14T12:12:17.213Z,63.49
2023-04-14T12:14:48.036Z,61.50
2023-04-14T12:17:18.819Z,57.06
2023-04-14T12:19:47.306Z,58.36
2023-04-14T12:22:16.164Z,58.56
2023-04-14T12:24:44.840Z,53.24
2023-04-14T12:27:15.096Z,56.58
2023-04-14T12:29:45.199Z,55.54
2023-04-14T12:32:15.422Z,53.96
2023-04-14T12:34:54.299Z,51.70
2023-04-14T12:37:26.035Z,51.34
2023-04-14T12:39:58.154Z,52.05
2023-04-14T12:42:26.710Z,50.40
2023-04-14T12:44:56.252Z,50.28
2023-04-14T12:47:29.920Z,52.93
2023-04-14T12:49:59.375Z,53.49
2023-04-14T12:52:35.567Z,53.39
2023-04-14T12:55:04.824Z,54.85
2023-04-14T12:57:33.631Z,52.59
2023-04-14T13:00:02.362Z,48.17
2023-04-14T13:05:19.116Z,47.26
2023-04-14T13:07:47.419Z,47.95
2023-04-14T13:10:15.706Z,43.61
2023-04-14T13:12:44.077Z,44.63
2023-04-14T13:16:10.442Z,44.40
2023-04-14T13:18:03.219Z,45.29
2023-04-14T13:20:31.716Z,46.18
2023-04-14T13:23:00.053Z,49.02
2023-04-14T13:25:28.388Z,44.20
2023-04-14T13:27:56.770Z,44.04
2023-04-14T13:30:25.034Z,44.89
2023-04-14T13:32:53.530Z,44.81
2023-04-14T13:35:23.322Z,47.66
2023-04-14T13:37:51.565Z,48.63
2023-04-14T13:40:19.826Z,46.71
2023-04-14T13:42:48.093Z,49.43
2023-04-14T13:45:17.114Z,51.26
2023-04-14T13:47:48.291Z,54.83
2023-04-14T13:50:17.698Z,56.29
2023-04-14T13:52:47.374Z,55.57
2023-04-14T13:55:15.673Z,59.63
2023-04-14T13:57:43.876Z,69.59
2023-04-14T14:00:13.452Z,72.16
2023-04-14T14:02:41.914Z,100.00
2023-04-14T14:05:11.750Z,100.00
2023-04-14T14:07:40.191Z,95.88
2023-04-14T14:10:10.988Z,100.00
2023-04-14T14:12:39.391Z,100.00
2023-04-14T14:15:08.840Z,100.00
2023-04-14T14:17:38.089Z,100.00
2023-04-14T14:20:07.631Z,100.00
2023-04-14T14:22:35.903Z,100.00
2023-04-14T14:25:18.502Z,100.00
2023-04-14T14:27:51.924Z,100.00
2023-04-14T14:30:20.441Z,100.00
2023-04-14T14:32:48.712Z,100.00
2023-04-14T14:35:17.300Z,95.83
2023-04-14T14:37:45.971Z,86.69
2023-04-14T14:40:14.333Z,86.82
2023-04-14T14:42:42.644Z,79.08
2023-04-14T14:45:13.428Z,71.76
2023-04-14T14:47:41.998Z,66.53
2023-04-14T14:50:10.680Z,59.86
2023-04-14T14:52:39.012Z,56.80
2023-04-14T14:55:08.478Z,55.43
2023-04-14T14:57:36.671Z,56.30
2023-04-14T15:00:07.732Z,55.12
2023-04-14T15:02:38.545Z,57.44
2023-04-14T15:05:08.271Z,58.34
2023-04-14T15:07:36.552Z,62.34
2023-04-14T15:10:05.786Z,61.68
2023-04-14T15:12:34.354Z,62.24
2023-04-14T15:15:02.718Z,63.13
2023-04-14T15:17:31.525Z,60.06
2023-04-14T15:20:04.476Z,67.63
2023-04-14T15:22:32.845Z,62.79
2023-04-14T15:25:01.084Z,59.88
2023-04-14T15:27:29.312Z,60.37
2023-04-14T15:29:57.990Z,60.24
2023-04-14T15:32:27.528Z,59.99
2023-04-14T15:34:56.156Z,61.73
2023-04-14T15:37:26.597Z,61.98
2023-04-14T15:39:54.891Z,64.86
2023-04-14T15:42:23.129Z,66.40
2023-04-14T15:44:51.829Z,63.20
2023-04-14T15:47:20.140Z,61.12
2023-04-14T15:49:49.914Z,57.21
2023-04-14T15:52:20.889Z,59.54
2023-04-14T15:54:50.463Z,55.95
2023-04-14T15:57:19.159Z,55.68
2023-04-14T15:59:47.460Z,52.98
2023-04-14T16:02:16.099Z,50.57
2023-04-14T16:04:44.450Z,49.38
2023-04-14T16:07:12.710Z,47.85
2023-04-14T16:09:40.944Z,48.29
2023-04-14T16:12:10.689Z,48.19
2023-04-14T16:14:38.951Z,49.29
2023-04-14T16:17:07.260Z,51.57
2023-04-14T16:19:35.588Z,50.58
2023-04-14T16:22:03.913Z,50.27
2023-04-14T16:24:32.232Z,49.59
2023-04-14T16:27:01.089Z,48.84
2023-04-14T16:29:30.832Z,49.04
2023-04-14T16:31:59.080Z,50.08
2023-04-14T16:34:27.324Z,50.46
2023-04-14T16:36:55.718Z,48.98
2023-04-14T16:39:23.979Z,47.98
2023-04-14T16:41:52.672Z,49.17
2023-04-14T16:44:21.445Z,51.78
2023-04-14T16:46:51.632Z,53.16
2023-04-14T16:49:20.156Z,55.67
2023-04-14T16:51:48.496Z,53.45
2023-04-14T16:54:17.174Z,51.86
2023-04-14T16:56:45.522Z,53.87
2023-04-14T16:59:13.885Z,55.68
2023-04-14T17:01:42.285Z,55.00
2023-04-14T17:04:12.427Z,56.39
2023-04-14T17:06:40.908Z,64.02
2023-04-14T17:09:09.287Z,66.02
2023-04-14T17:11:37.520Z,70.90
2023-04-14T17:14:06.521Z,74.42
2023-04-14T17:16:35.006Z,71.80
2023-04-14T17:19:04.466Z,71.23
2023-04-14T17:21:34.094Z,68.46
2023-04-14T17:24:03.221Z,63.83
2023-04-14T17:26:31.588Z,61.58
2023-04-14T17:28:59.968Z,57.99
2023-04-14T17:31:28.524Z,59.88
2023-04-14T17:33:57.504Z,57.49
2023-04-14T17:36:25.718Z,59.58
2023-04-14T17:38:55.573Z,70.66
2023-04-14T17:41:24.190Z,83.08
2023-04-14T17:43:55.062Z,91.24
2023-04-14T17:46:33.547Z,89.15
2023-04-14T17:49:02.774Z,83.64
2023-04-14T17:51:32.276Z,81.23
2023-04-14T17:54:02.459Z,77.78
2023-04-14T17:56:31.845Z,72.87
2023-04-14T17:59:00.592Z,80.13
2023-04-14T18:01:28.875Z,77.38
2023-04-14T18:03:58.307Z,77.43
2023-04-14T18:06:26.673Z,77.46
2023-04-14T18:08:55.001Z,78.65
2023-04-14T18:11:24.582Z,74.88
2023-04-14T18:13:53.743Z,78.07
2023-04-14T18:16:22.214Z,73.60
2023-04-14T18:18:50.820Z,79.19
2023-04-14T18:21:19.336Z,82.57
2023-04-14T18:24:47.916Z,81.66
2023-04-14T18:26:37.191Z,77.93
2023-04-14T18:29:05.818Z,78.36
2023-04-14T18:31:34.197Z,73.43
2023-04-14T18:34:04.317Z,76.68
2023-04-14T18:36:33.444Z,79.00
2023-04-14T18:39:02.301Z,73.36
2023-04-14T18:41:30.799Z,77.52
2023-04-14T18:44:00.426Z,73.83
2023-04-14T18:46:28.744Z,84.77
2023-04-14T18:48:57.074Z,85.87
2023-04-14T18:51:25.892Z,90.17
2023-04-14T18:53:54.397Z,89.55
2023-04-14T18:56:22.619Z,100.00
2023-04-14T18:58:51.881Z,100.00
2023-04-14T19:01:21.575Z,100.00
2023-04-14T19:03:49.978Z,99.65
2023-04-14T19:06:18.243Z,100.00
2023-04-14T19:08:46.563Z,100.00
2023-04-14T19:11:14.883Z,100.00
2023-04-14T19:13:43.149Z,100.00
2023-04-14T19:16:12.534Z,100.00
2023-04-14T19:18:42.876Z,100.00
2023-04-14T19:21:11.170Z,100.00
2023-04-14T19:23:40.959Z,100.00
2023-04-14T19:26:11.493Z,99.65
2023-04-14T19:28:42.379Z,93.91
2023-04-14T19:31:11.001Z,88.86
2023-04-14T19:33:39.297Z,83.08
2023-04-14T19:36:14.153Z,74.86
2023-04-14T19:38:42.555Z,71.99
2023-04-14T19:41:10.888Z,83.49
2023-04-14T19:43:39.151Z,91.18
2023-04-14T19:46:09.453Z,100.00
2023-04-14T19:48:38.992Z,100.00
2023-04-14T19:51:07.329Z,100.00
2023-04-14T19:53:37.420Z,100.00
2023-04-14T19:56:07.285Z,100.00
2023-04-14T19:58:36.410Z,100.00
2023-04-14T20:01:05.709Z,100.00
2023-04-14T20:03:34.780Z,100.00
2023-04-14T20:06:03.354Z,100.00
2023-04-14T20:08:32.377Z,100.00
2023-04-14T20:11:02.042Z,100.00
2023-04-14T20:13:32.132Z,100.00
2023-04-14T20:16:01.461Z,98.71
2023-04-14T20:18:30.048Z,100.00
2023-04-14T20:20:59.059Z,90.48
2023-04-14T20:23:27.870Z,88.94
2023-04-14T20:25:56.772Z,92.56
2023-04-14T20:28:26.776Z,90.75
2023-04-14T20:30:56.007Z,86.97
2023-04-14T20:33:24.870Z,80.42
2023-04-14T20:35:54.217Z,82.69
2023-04-14T20:38:23.558Z,83.38
2023-04-14T20:40:52.012Z,81.00
2023-04-14T20:43:20.348Z,75.37
2023-04-14T20:45:52.532Z,76.87
2023-04-14T20:48:20.905Z,82.97
2023-04-14T20:50:50.039Z,95.10
2023-04-14T20:53:22.088Z,96.10
2023-04-14T20:55:51.092Z,100.00
2023-04-14T20:58:19.407Z,96.48
2023-04-14T21:00:47.702Z,88.81
2023-04-14T21:03:17.458Z,90.35
2023-04-14T21:05:46.272Z,93.86
2023-04-14T21:08:14.544Z,92.30
2023-04-14T21:11:16.353Z,95.56
2023-04-14T21:15:24.879Z,90.77
2023-04-14T21:16:19.337Z,89.00
2023-04-14T21:18:48.963Z,98.91
2023-04-14T21:21:17.926Z,100.00
2023-04-14T21:23:46.258Z,100.00
2023-04-14T21:26:14.588Z,100.00
2023-04-14T21:28:43.011Z,100.00
2023-04-14T21:31:11.526Z,95.93
2023-04-14T21:33:41.621Z,100.00
2023-04-14T21:36:11.330Z,95.63
2023-04-14T21:38:39.706Z,96.85
2023-04-14T21:41:09.450Z,99.82
2023-04-14T21:43:38.579Z,99.01
2023-04-14T21:46:06.893Z,94.60
2023-04-14T21:48:35.322Z,99.26
2023-04-14T21:51:04.509Z,100.00
2023-04-14T21:53:36.181Z,100.00
2023-04-14T21:56:10.298Z,100.00
2023-04-14T21:58:40.280Z,96.72
2023-04-14T22:01:09.668Z,94.81
2023-04-14T22:03:40.611Z,96.04
2023-04-14T22:06:09.999Z,100.00
2023-04-14T22:08:40.237Z,96.06
2023-04-14T22:11:08.705Z,96.73
2023-04-14T22:13:37.128Z,100.00
2023-04-14T22:16:05.728Z,100.00
2023-04-14T22:18:35.756Z,100.00
2023-04-14T22:21:04.882Z,100.00
2023-04-14T22:23:33.222Z,100.00
2023-04-14T22:26:03.572Z,100.00
2023-04-14T22:28:31.838Z,100.00
2023-04-14T22:31:00.256Z,100.00
2023-04-14T22:33:28.575Z,100.00
2023-04-14T22:35:56.869Z,100.00
2023-04-14T22:38:25.175Z,100.00
2023-04-14T22:40:53.456Z,100.00
2023-04-14T22:43:23.128Z,100.00
2023-04-14T22:45:51.680Z,100.00
2023-04-14T22:48:19.938Z,100.00
2023-04-14T22:50:48.169Z,100.00
2023-04-14T22:53:16.466Z,100.00
2023-04-14T22:55:45.107Z,100.00
2023-04-14T22:58:16.844Z,100.00
2023-04-14T23:00:46.927Z,100.00
2023-04-14T23:03:15.555Z,100.00
2023-04-14T23:05:44.708Z,100.00
2023-04-14T23:08:13.051Z,100.00
2023-04-14T23:10:41.321Z,100.00
2023-04-14T23:13:09.587Z,100.00
2023-04-14T23:15:37.923Z,100.00
2023-04-14T23:18:07.522Z,100.00
2023-04-14T23:20:36.425Z,100.00
2023-04-14T23:23:05.774Z,100.00
2023-04-14T23:25:34.006Z,100.00
2023-04-14T23:28:02.255Z,100.00
2023-04-14T23:30:30.471Z,100.00
2023-04-14T23:32:58.774Z,100.00
2023-04-14T23:35:29.055Z,100.00
2023-04-14T23:38:02.259Z,100.00
2023-04-14T23:40:31.754Z,100.00
2023-04-14T23:43:00.063Z,100.00
2023-04-14T23:45:28.523Z,99.64
2023-04-14T23:47:58.545Z,98.18
2023-04-14T23:50:58.931Z,100.00
2023-04-14T23:53:16.560Z,98.79
2023-04-14T23:55:44.866Z,100.00
2023-04-14T23:58:13.885Z,100.00
